createdAt,value
2024-03-02T00:00:53.092Z,42.56
2024-03-02T00:03:42.081Z,42.60
2024-03-02T00:06:10.483Z,42.66
2024-03-02T00:08:39.090Z,42.79
2024-03-02T00:11:07.544Z,41.93
2024-03-02T00:13:37.162Z,42.14
2024-03-02T00:16:06.831Z,41.71
2024-03-02T00:18:36.272Z,41.86
2024-03-02T00:21:05.213Z,41.92
2024-03-02T00:23:33.703Z,42.14
2024-03-02T00:26:02.316Z,42.26
2024-03-02T00:28:35.424Z,42.39
2024-03-02T00:31:04.782Z,42.75
2024-03-02T00:33:35.246Z,42.60
2024-03-02T00:36:07.910Z,42.70
2024-03-02T00:38:41.249Z,42.44
2024-03-02T00:41:09.502Z,41.74
2024-03-02T00:44:07.526Z,41.70
2024-03-02T00:46:36.452Z,41.86
2024-03-02T00:49:06.018Z,41.47
2024-03-02T00:51:35.215Z,41.86
2024-03-02T00:54:08.593Z,42.15
2024-03-02T00:56:37.065Z,42.17
2024-03-02T00:59:05.483Z,42.15
2024-03-02T01:01:34.091Z,42.13
2024-03-02T01:04:02.474Z,42.29
2024-03-02T01:06:31.669Z,42.42
2024-03-02T01:08:59.897Z,42.35
2024-03-02T01:11:28.871Z,42.47
2024-03-02T01:13:57.084Z,42.40
2024-03-02T01:16:25.305Z,42.67
2024-03-02T01:18:53.768Z,42.81
2024-03-02T01:21:22.042Z,42.85
2024-03-02T01:23:50.263Z,42.92
2024-03-02T01:26:18.377Z,43.03
2024-03-02T01:28:46.675Z,43.16
2024-03-02T01:31:14.937Z,43.18
2024-03-02T01:33:43.232Z,43.40
2024-03-02T01:36:11.395Z,43.52
2024-03-02T01:38:39.634Z,43.61
2024-03-02T01:41:07.669Z,43.71
2024-03-02T01:43:38.109Z,43.71
2024-03-02T01:46:07.568Z,43.86
2024-03-02T01:48:35.945Z,44.02
2024-03-02T01:51:05.269Z,44.18
2024-03-02T01:53:33.536Z,44.18
2024-03-02T01:56:02.703Z,44.28
2024-03-02T01:58:30.979Z,44.44
2024-03-02T02:00:59.341Z,44.37
2024-03-02T02:03:27.634Z,44.34
2024-03-02T02:05:55.834Z,44.43
2024-03-02T02:08:24.095Z,44.49
2024-03-02T02:10:52.546Z,44.70
2024-03-02T02:13:20.962Z,44.70
2024-03-02T02:15:49.195Z,44.74
2024-03-02T02:18:17.313Z,44.89
2024-03-02T02:20:45.407Z,45.14
2024-03-02T02:23:14.804Z,45.12
2024-03-02T02:25:43.360Z,45.19
2024-03-02T02:28:11.581Z,45.28
2024-03-02T02:30:39.753Z,45.47
2024-03-02T02:33:08.041Z,45.44
2024-03-02T02:35:36.388Z,45.40
2024-03-02T02:38:04.818Z,45.45
2024-03-02T02:40:33.016Z,45.38
2024-03-02T02:43:01.244Z,45.36
2024-03-02T02:45:29.566Z,45.35
2024-03-02T02:47:57.825Z,45.32
2024-03-02T02:50:25.892Z,45.29
2024-03-02T02:52:54.193Z,45.15
2024-03-02T02:55:22.273Z,45.07
2024-03-02T02:57:50.908Z,45.22
2024-03-02T03:00:21.325Z,44.98
2024-03-02T03:02:51.392Z,44.56
2024-03-02T03:05:20.295Z,44.42
2024-03-02T03:07:51.384Z,44.56
2024-03-02T03:10:21.774Z,44.33
2024-03-02T03:12:50.557Z,43.97
2024-03-02T03:15:18.776Z,43.92
2024-03-02T03:17:48.688Z,44.24
2024-03-02T03:20:17.274Z,44.34
2024-03-02T03:22:45.704Z,44.63
2024-03-02T03:25:13.875Z,44.62
2024-03-02T03:27:42.925Z,44.75
2024-03-02T03:30:12.228Z,44.12
2024-03-02T03:32:40.392Z,43.92
2024-03-02T03:35:09.016Z,43.54
2024-03-02T03:37:37.361Z,43.29
2024-03-02T03:40:11.561Z,43.11
2024-03-02T03:42:40.506Z,42.99
2024-03-02T03:45:09.555Z,42.38
2024-03-02T03:47:37.849Z,42.01
2024-03-02T03:50:08.520Z,41.51
2024-03-02T03:52:37.138Z,40.28
2024-03-02T03:55:07.017Z,40.93
2024-03-02T03:57:35.348Z,40.98
2024-03-02T04:00:04.646Z,41.61
2024-03-02T04:02:40.346Z,42.89
2024-03-02T04:05:12.159Z,43.24
2024-03-02T04:07:44.328Z,43.61
2024-03-02T04:10:14.045Z,43.86
2024-03-02T04:12:42.383Z,44.34
2024-03-02T04:15:10.619Z,44.61
2024-03-02T04:17:38.781Z,44.45
2024-03-02T04:20:07.747Z,44.58
2024-03-02T04:22:36.854Z,44.57
2024-03-02T04:25:08.727Z,44.56
2024-03-02T04:27:37.543Z,44.59
2024-03-02T04:30:06.688Z,44.77
2024-03-02T04:32:35.208Z,44.81
2024-03-02T04:35:03.455Z,44.84
2024-03-02T04:37:32.219Z,44.85
2024-03-02T04:40:00.511Z,44.94
2024-03-02T04:42:28.949Z,45.07
2024-03-02T04:44:57.079Z,45.81
2024-03-02T04:47:25.258Z,46.04
2024-03-02T04:49:53.420Z,45.91
2024-03-02T04:52:21.515Z,45.91
2024-03-02T04:55:08.364Z,45.95
2024-03-02T04:57:36.712Z,46.10
2024-03-02T05:00:08.851Z,46.23
2024-03-02T05:02:37.189Z,46.16
2024-03-02T05:05:05.563Z,46.33
2024-03-02T05:07:33.786Z,46.38
2024-03-02T05:10:02.072Z,46.35
2024-03-02T05:12:50.527Z,46.43
2024-03-02T05:15:18.946Z,46.65
2024-03-02T05:17:47.105Z,46.53
2024-03-02T05:20:15.297Z,46.76
2024-03-02T05:22:43.379Z,46.80
2024-03-02T05:25:12.148Z,46.74
2024-03-02T05:27:40.783Z,46.77
2024-03-02T05:30:09.937Z,46.96
2024-03-02T05:32:38.495Z,47.02
2024-03-02T05:35:07.364Z,46.90
2024-03-02T05:37:35.493Z,47.05
2024-03-02T05:40:04.240Z,47.10
2024-03-02T05:42:32.409Z,46.85
2024-03-02T05:45:00.776Z,46.67
2024-03-02T05:47:29.390Z,46.45
2024-03-02T05:49:57.800Z,46.51
2024-03-02T05:52:26.009Z,46.29
2024-03-02T05:54:54.463Z,45.79
2024-03-02T05:57:41.118Z,44.85
2024-03-02T06:00:09.747Z,43.44
2024-03-02T06:02:43.444Z,42.69
2024-03-02T06:05:11.642Z,42.95
2024-03-02T06:07:39.738Z,43.01
2024-03-02T06:10:13.756Z,42.21
2024-03-02T06:12:42.582Z,41.62
2024-03-02T06:15:12.148Z,41.77
2024-03-02T06:17:40.294Z,41.53
2024-03-02T06:20:09.839Z,41.70
2024-03-02T06:22:38.609Z,41.43
2024-03-02T06:25:07.396Z,41.22
2024-03-02T06:27:35.808Z,41.71
2024-03-02T06:30:05.383Z,41.91
2024-03-02T06:32:33.908Z,41.08
2024-03-02T06:35:02.478Z,41.13
2024-03-02T06:37:30.583Z,41.09
2024-03-02T06:39:59.006Z,41.23
2024-03-02T06:42:27.545Z,41.31
2024-03-02T06:44:55.697Z,41.18
2024-03-02T06:47:24.058Z,41.01
2024-03-02T06:49:52.627Z,41.12
2024-03-02T06:52:24.890Z,40.51
2024-03-02T06:54:53.522Z,40.76
2024-03-02T06:57:22.267Z,40.66
2024-03-02T06:59:52.645Z,40.11
2024-03-02T07:02:21.261Z,40.60
2024-03-02T07:04:49.894Z,40.08
2024-03-02T07:07:18.139Z,39.38
2024-03-02T07:09:46.831Z,39.69
2024-03-02T07:12:15.231Z,40.28
2024-03-02T07:15:02.072Z,40.42
2024-03-02T07:17:30.636Z,40.34
2024-03-02T07:19:59.193Z,40.25
2024-03-02T07:22:27.199Z,40.12
2024-03-02T07:24:55.362Z,40.02
2024-03-02T07:27:23.554Z,39.51
2024-03-02T07:29:51.601Z,39.11
2024-03-02T07:32:19.992Z,39.38
2024-03-02T07:34:48.143Z,38.91
2024-03-02T07:37:16.368Z,38.30
2024-03-02T07:39:45.758Z,37.67
2024-03-02T07:42:13.781Z,37.46
2024-03-02T07:44:42.331Z,37.92
2024-03-02T07:47:10.465Z,38.11
2024-03-02T07:49:38.564Z,38.17
2024-03-02T07:52:06.827Z,38.30
2024-03-02T07:54:35.161Z,38.74
2024-03-02T07:57:03.444Z,38.53
2024-03-02T07:59:31.610Z,39.05
2024-03-02T08:01:59.826Z,39.53
2024-03-02T08:04:28.000Z,39.65
2024-03-02T08:06:56.521Z,39.10
2024-03-02T08:09:25.149Z,39.12
2024-03-02T08:11:53.321Z,38.86
2024-03-02T08:14:21.846Z,38.16
2024-03-02T08:16:49.921Z,38.28
2024-03-02T08:19:18.177Z,38.28
2024-03-02T08:21:46.588Z,40.33
2024-03-02T08:24:14.730Z,40.52
2024-03-02T08:26:43.191Z,39.94
2024-03-02T08:29:11.331Z,37.00
2024-03-02T08:31:42.153Z,37.62
2024-03-02T08:34:10.893Z,38.90
2024-03-02T08:36:39.506Z,40.10
2024-03-02T08:39:16.237Z,40.41
2024-03-02T08:41:47.543Z,40.56
2024-03-02T08:44:15.768Z,40.22
2024-03-02T08:46:43.892Z,40.28
2024-03-02T08:49:12.093Z,40.18
2024-03-02T08:51:40.340Z,40.39
2024-03-02T08:54:09.027Z,40.45
2024-03-02T08:56:37.299Z,40.28
2024-03-02T08:59:05.523Z,39.52
2024-03-02T09:01:34.058Z,39.26
2024-03-02T09:04:02.230Z,38.52
2024-03-02T09:06:30.455Z,38.16
2024-03-02T09:08:58.454Z,37.45
2024-03-02T09:11:26.841Z,36.76
2024-03-02T09:13:56.005Z,35.60
2024-03-02T09:16:24.290Z,35.47
2024-03-02T09:18:52.470Z,35.86
2024-03-02T09:21:20.602Z,36.36
2024-03-02T09:23:49.538Z,36.51
2024-03-02T09:26:17.927Z,36.56
2024-03-02T09:28:46.155Z,35.59
2024-03-02T09:31:14.283Z,35.20
2024-03-02T09:33:42.451Z,35.30
2024-03-02T09:36:23.393Z,35.67
2024-03-02T09:38:51.689Z,35.73
2024-03-02T09:41:20.783Z,36.12
2024-03-02T09:43:49.265Z,36.13
2024-03-02T09:46:17.495Z,36.06
2024-03-02T09:48:46.222Z,36.24
2024-03-02T09:51:14.310Z,36.72
2024-03-02T09:53:42.779Z,36.08
2024-03-02T09:56:10.770Z,35.87
2024-03-02T09:58:40.012Z,35.92
2024-03-02T10:01:08.412Z,35.57
2024-03-02T10:03:38.545Z,35.89
2024-03-02T10:06:39.882Z,36.40
2024-03-02T10:09:08.105Z,36.46
2024-03-02T10:11:38.463Z,36.09
2024-03-02T10:14:11.284Z,36.15
2024-03-02T10:16:43.210Z,36.08
2024-03-02T10:19:21.444Z,36.04
2024-03-02T10:21:53.156Z,35.18
2024-03-02T10:24:23.017Z,34.97
2024-03-02T10:26:51.681Z,34.68
2024-03-02T10:29:19.956Z,34.73
2024-03-02T10:31:48.032Z,35.07
2024-03-02T10:34:17.493Z,35.06
2024-03-02T10:36:46.829Z,34.68
2024-03-02T10:39:15.747Z,35.39
2024-03-02T10:41:43.806Z,35.74
2024-03-02T10:44:12.216Z,35.59
2024-03-02T10:46:40.408Z,35.61
2024-03-02T10:49:09.529Z,35.71
2024-03-02T10:51:39.040Z,35.60
2024-03-02T10:54:10.242Z,35.61
2024-03-02T10:56:40.756Z,35.25
2024-03-02T10:59:21.211Z,35.15
2024-03-02T11:01:49.733Z,34.93
2024-03-02T11:04:19.385Z,35.20
2024-03-02T11:06:51.058Z,35.11
2024-03-02T11:09:26.999Z,34.97
2024-03-02T11:12:19.638Z,34.69
2024-03-02T11:14:47.782Z,34.80
2024-03-02T11:17:18.695Z,34.05
2024-03-02T11:19:46.875Z,34.14
2024-03-02T11:22:14.913Z,34.08
2024-03-02T11:24:53.260Z,33.75
2024-03-02T11:27:46.316Z,33.56
2024-03-02T11:30:33.141Z,32.39
2024-03-02T11:33:12.695Z,33.03
2024-03-02T11:35:48.525Z,32.38
2024-03-02T11:38:16.620Z,32.31
2024-03-02T11:40:44.602Z,32.47
2024-03-02T11:43:12.769Z,31.97
2024-03-02T11:45:45.287Z,32.04
2024-03-02T11:48:17.268Z,32.53
2024-03-02T11:50:50.728Z,30.99
2024-03-02T11:53:19.482Z,30.34
2024-03-02T11:55:48.222Z,30.49
2024-03-02T11:58:22.015Z,30.82
2024-03-02T12:00:52.141Z,30.84
2024-03-02T12:03:21.973Z,31.13
2024-03-02T12:05:56.539Z,31.29
2024-03-02T12:08:24.979Z,31.14
2024-03-02T12:11:00.212Z,31.58
2024-03-02T12:13:28.335Z,31.74
2024-03-02T12:15:59.712Z,31.47
2024-03-02T12:18:28.343Z,31.12
2024-03-02T12:20:59.057Z,31.11
2024-03-02T12:23:27.783Z,30.68
2024-03-02T12:25:56.129Z,30.43
2024-03-02T12:28:24.301Z,31.19
2024-03-02T12:30:52.962Z,30.30
2024-03-02T12:33:21.313Z,30.07
2024-03-02T12:35:50.645Z,29.92
2024-03-02T12:38:18.922Z,29.89
2024-03-02T12:40:49.543Z,29.66
2024-03-02T12:43:17.694Z,29.52
2024-03-02T12:45:46.261Z,29.13
2024-03-02T12:48:14.519Z,28.96
2024-03-02T12:50:42.904Z,28.49
2024-03-02T12:53:15.773Z,28.54
2024-03-02T12:55:45.507Z,28.24
2024-03-02T12:58:23.216Z,28.23
2024-03-02T13:00:51.590Z,28.33
2024-03-02T13:03:22.114Z,28.99
2024-03-02T13:05:51.216Z,28.65
2024-03-02T13:08:19.508Z,28.93
2024-03-02T13:10:47.710Z,28.78
2024-03-02T13:13:15.982Z,28.39
2024-03-02T13:15:44.471Z,28.95
2024-03-02T13:18:12.817Z,29.18
2024-03-02T13:20:41.178Z,29.51
2024-03-02T13:23:09.465Z,30.16
2024-03-02T13:25:37.491Z,30.32
2024-03-02T13:28:06.347Z,30.52
2024-03-02T13:30:35.218Z,31.06
2024-03-02T13:33:03.486Z,31.11
2024-03-02T13:35:31.654Z,31.37
2024-03-02T13:38:00.333Z,31.62
2024-03-02T13:40:29.018Z,31.69
2024-03-02T13:42:57.278Z,32.11
2024-03-02T13:45:25.483Z,32.51
2024-03-02T13:47:53.768Z,32.78
2024-03-02T13:50:22.021Z,32.84
2024-03-02T13:52:50.126Z,33.17
2024-03-02T13:55:18.773Z,33.28
2024-03-02T13:57:47.833Z,33.62
2024-03-02T14:00:16.880Z,33.71
2024-03-02T14:02:45.238Z,33.83
2024-03-02T14:05:14.994Z,33.80
2024-03-02T14:07:43.262Z,33.72
2024-03-02T14:10:11.461Z,33.85
2024-03-02T14:12:39.628Z,34.10
2024-03-02T14:15:08.411Z,34.14
2024-03-02T14:17:36.717Z,34.33
2024-03-02T14:20:06.204Z,33.99
2024-03-02T14:22:35.417Z,33.99
2024-03-02T14:25:03.768Z,34.18
2024-03-02T14:27:44.386Z,34.42
2024-03-02T14:30:20.210Z,34.40
2024-03-02T14:32:48.328Z,34.43
2024-03-02T14:35:16.512Z,34.45
2024-03-02T14:37:44.692Z,34.71
2024-03-02T14:40:13.944Z,34.76
2024-03-02T14:42:43.389Z,34.77
2024-03-02T14:45:11.706Z,34.93
2024-03-02T14:47:39.911Z,35.31
2024-03-02T14:50:08.467Z,35.33
2024-03-02T14:52:37.003Z,35.63
2024-03-02T14:55:08.780Z,35.85
2024-03-02T14:57:37.253Z,35.83
2024-03-02T15:00:08.863Z,35.96
2024-03-02T15:02:37.008Z,36.08
2024-03-02T15:05:07.072Z,36.05
2024-03-02T15:07:35.270Z,36.18
2024-03-02T15:10:05.534Z,36.09
2024-03-02T15:12:34.117Z,36.12
2024-03-02T15:15:02.524Z,36.35
2024-03-02T15:17:30.749Z,36.32
2024-03-02T15:19:58.933Z,36.38
2024-03-02T15:22:27.272Z,36.66
2024-03-02T15:24:55.307Z,36.80
2024-03-02T15:27:23.536Z,36.96
2024-03-02T15:29:53.371Z,36.82
2024-03-02T15:32:21.642Z,37.17
2024-03-02T15:34:49.866Z,37.23
2024-03-02T15:37:18.593Z,37.32
2024-03-02T15:39:46.735Z,37.42
2024-03-02T15:42:14.861Z,37.45
2024-03-02T15:44:45.246Z,37.61
2024-03-02T15:47:13.636Z,37.58
2024-03-02T15:49:41.902Z,37.57
2024-03-02T15:52:10.397Z,37.59
2024-03-02T15:54:38.704Z,37.86
2024-03-02T15:57:07.074Z,38.09
2024-03-02T15:59:35.198Z,38.20
2024-03-02T16:02:04.907Z,38.35
2024-03-02T16:04:33.103Z,38.64
2024-03-02T16:07:01.220Z,38.71
2024-03-02T16:09:29.411Z,38.86
2024-03-02T16:11:57.646Z,39.03
2024-03-02T16:14:26.039Z,38.91
2024-03-02T16:16:54.080Z,38.99
2024-03-02T16:19:29.750Z,39.27
2024-03-02T16:22:01.460Z,39.11
2024-03-02T16:24:29.669Z,39.46
2024-03-02T16:26:57.968Z,39.57
2024-03-02T16:29:26.085Z,39.71
2024-03-02T16:31:54.161Z,39.36
2024-03-02T16:34:22.341Z,39.31
2024-03-02T16:36:50.687Z,39.24
2024-03-02T16:39:18.899Z,39.14
2024-03-02T16:41:48.159Z,39.37
2024-03-02T16:44:16.596Z,39.36
2024-03-02T16:46:46.318Z,39.09
2024-03-02T16:49:14.627Z,39.09
2024-03-02T16:51:43.123Z,38.98
2024-03-02T16:54:11.469Z,38.92
2024-03-02T16:56:40.672Z,39.05
2024-03-02T16:59:09.053Z,38.73
2024-03-02T17:01:37.542Z,39.22
2024-03-02T17:04:06.893Z,39.44
2024-03-02T17:06:35.207Z,39.79
2024-03-02T17:09:03.741Z,39.78
2024-03-02T17:11:32.218Z,39.89
2024-03-02T17:14:01.013Z,39.87
2024-03-02T17:16:29.229Z,39.81
2024-03-02T17:18:58.064Z,39.83
2024-03-02T17:21:26.496Z,39.83
2024-03-02T17:23:54.663Z,39.60
2024-03-02T17:26:22.858Z,39.73
2024-03-02T17:28:51.032Z,39.90
2024-03-02T17:31:19.232Z,39.71
2024-03-02T17:33:47.400Z,39.97
2024-03-02T17:36:15.649Z,40.06
2024-03-02T17:38:43.843Z,40.10
2024-03-02T17:41:12.348Z,40.27
2024-03-02T17:43:40.891Z,40.41
2024-03-02T17:46:09.122Z,40.61
2024-03-02T17:48:37.478Z,40.88
2024-03-02T17:51:11.218Z,40.84
2024-03-02T17:53:39.636Z,40.82
2024-03-02T17:56:10.677Z,40.92
2024-03-02T17:58:39.266Z,41.02
2024-03-02T18:01:07.774Z,41.10
2024-03-02T18:03:35.928Z,41.09
2024-03-02T18:06:05.437Z,41.36
2024-03-02T18:08:35.353Z,41.46
2024-03-02T18:11:05.110Z,41.34
2024-03-02T18:13:35.055Z,41.46
2024-03-02T18:16:03.540Z,41.70
2024-03-02T18:18:33.089Z,41.70
2024-03-02T18:21:01.440Z,41.82
2024-03-02T18:23:30.358Z,41.88
2024-03-02T18:25:58.587Z,42.14
2024-03-02T18:28:27.024Z,42.38
2024-03-02T18:30:55.404Z,42.46
2024-03-02T18:33:23.811Z,42.63
2024-03-02T18:35:52.155Z,42.66
2024-03-02T18:38:20.586Z,42.74
2024-03-02T18:40:48.912Z,42.97
2024-03-02T18:43:17.061Z,43.18
2024-03-02T18:45:45.470Z,43.49
2024-03-02T18:48:13.807Z,43.45
2024-03-02T18:50:42.063Z,43.74
2024-03-02T18:53:12.488Z,43.88
2024-03-02T18:55:42.178Z,43.85
2024-03-02T18:58:10.467Z,43.69
2024-03-02T19:00:39.719Z,43.76
2024-03-02T19:03:10.854Z,43.77
2024-03-02T19:05:39.646Z,43.86
2024-03-02T19:08:09.201Z,43.88
2024-03-02T19:10:37.332Z,44.06
2024-03-02T19:13:07.102Z,44.07
2024-03-02T19:15:35.565Z,44.14
2024-03-02T19:18:04.511Z,44.14
2024-03-02T19:20:32.777Z,44.22
2024-03-02T19:23:01.456Z,44.55
2024-03-02T19:25:29.735Z,44.66
2024-03-02T19:27:58.238Z,44.54
2024-03-02T19:30:27.090Z,44.83
2024-03-02T19:32:55.583Z,44.59
2024-03-02T19:35:23.793Z,44.33
2024-03-02T19:37:53.057Z,44.26
2024-03-02T19:40:21.205Z,44.61
2024-03-02T19:42:49.329Z,44.69
2024-03-02T19:45:17.670Z,44.61
2024-03-02T19:47:45.813Z,44.67
2024-03-02T19:50:15.280Z,44.80
2024-03-02T19:52:43.408Z,45.24
2024-03-02T19:55:13.858Z,45.71
2024-03-02T19:57:45.822Z,45.94
2024-03-02T20:00:17.942Z,46.30
2024-03-02T20:02:46.143Z,46.56
2024-03-02T20:05:16.111Z,46.79
2024-03-02T20:07:44.304Z,47.12
2024-03-02T20:10:13.037Z,47.22
2024-03-02T20:12:41.305Z,47.09
2024-03-02T20:15:20.876Z,47.24
2024-03-02T20:17:49.180Z,47.17
2024-03-02T20:20:17.765Z,46.98
2024-03-02T20:22:47.020Z,46.57
2024-03-02T20:25:16.951Z,46.23
2024-03-02T20:27:46.428Z,46.12
2024-03-02T20:30:14.834Z,46.43
2024-03-02T20:32:43.435Z,46.54
2024-03-02T20:35:12.548Z,46.78
2024-03-02T20:37:41.196Z,47.08
2024-03-02T20:40:10.166Z,47.10
2024-03-02T20:42:39.035Z,47.07
2024-03-02T20:45:07.619Z,47.19
2024-03-02T20:47:35.656Z,47.27
2024-03-02T20:50:04.052Z,47.00
2024-03-02T20:52:32.165Z,46.70
2024-03-02T20:55:00.347Z,46.79
2024-03-02T20:57:30.210Z,46.54
2024-03-02T20:59:58.336Z,46.47
2024-03-02T21:02:26.776Z,46.58
2024-03-02T21:04:55.107Z,46.77
2024-03-02T21:07:23.844Z,46.71
2024-03-02T21:09:53.880Z,46.78
2024-03-02T21:12:22.213Z,47.71
2024-03-02T21:14:50.539Z,48.60
2024-03-02T21:17:18.693Z,48.72
2024-03-02T21:19:48.294Z,48.90
2024-03-02T21:22:16.896Z,49.12
2024-03-02T21:24:47.172Z,49.18
2024-03-02T21:27:18.493Z,49.23
2024-03-02T21:29:48.147Z,49.25
2024-03-02T21:32:16.224Z,49.24
2024-03-02T21:34:44.628Z,49.33
2024-03-02T21:37:12.814Z,49.53
2024-03-02T21:39:46.914Z,49.59
2024-03-02T21:42:15.884Z,49.71
2024-03-02T21:44:44.012Z,49.84
2024-03-02T21:47:12.368Z,50.03
2024-03-02T21:49:40.515Z,50.11
2024-03-02T21:52:08.811Z,50.20
2024-03-02T21:54:37.189Z,49.68
2024-03-02T21:57:10.330Z,50.02
2024-03-02T21:59:38.862Z,50.31
2024-03-02T22:02:06.970Z,50.84
2024-03-02T22:04:35.205Z,51.19
2024-03-02T22:07:03.846Z,51.81
2024-03-02T22:09:32.068Z,52.20
2024-03-02T22:12:02.137Z,52.60
2024-03-02T22:14:30.386Z,53.18
2024-03-02T22:16:58.654Z,53.62
2024-03-02T22:19:26.782Z,53.86
2024-03-02T22:21:54.894Z,53.93
2024-03-02T22:24:24.528Z,53.85
2024-03-02T22:26:53.517Z,54.18
2024-03-02T22:29:21.733Z,54.52
2024-03-02T22:31:49.958Z,54.42
2024-03-02T22:34:18.180Z,54.53
2024-03-02T22:36:46.227Z,54.80
2024-03-02T22:39:14.331Z,55.03
2024-03-02T22:41:42.426Z,55.19
2024-03-02T22:44:10.600Z,55.51
2024-03-02T22:46:38.764Z,55.25
2024-03-02T22:49:07.199Z,55.30
2024-03-02T22:51:35.594Z,55.59
2024-03-02T22:54:03.814Z,55.69
2024-03-02T22:56:32.092Z,55.84
2024-03-02T22:59:00.248Z,56.10
2024-03-02T23:01:28.497Z,56.09
2024-03-02T23:03:56.807Z,56.16
2024-03-02T23:06:24.990Z,56.41
2024-03-02T23:08:53.120Z,56.86
2024-03-02T23:11:21.256Z,57.28
2024-03-02T23:13:49.882Z,57.59
2024-03-02T23:16:18.018Z,57.76
2024-03-02T23:18:46.380Z,57.85
2024-03-02T23:21:15.172Z,57.98
2024-03-02T23:23:43.183Z,58.37
2024-03-02T23:26:11.348Z,58.50
2024-03-02T23:28:39.404Z,58.66
2024-03-02T23:31:07.703Z,58.72
2024-03-02T23:33:35.856Z,58.88
2024-03-02T23:36:04.363Z,59.35
2024-03-02T23:38:32.505Z,59.79
2024-03-02T23:41:11.212Z,60.06
2024-03-02T23:43:39.607Z,60.01
2024-03-02T23:46:08.930Z,60.08
2024-03-02T23:48:37.310Z,60.03
2024-03-02T23:51:05.630Z,60.22
2024-03-02T23:53:34.094Z,60.49
2024-03-02T23:56:12.469Z,60.68
2024-03-02T23:58:40.828Z,60.71
